createdAt,value
2024-04-03T00:01:18.091Z,0.00
2024-04-03T00:16:18.476Z,0.00
2024-04-03T00:31:18.966Z,4.00
2024-04-03T00:46:19.406Z,0.00
2024-04-03T01:01:19.966Z,12.00
2024-04-03T01:16:20.547Z,0.00
2024-04-03T01:31:20.978Z,0.00
2024-04-03T01:46:21.385Z,4.00
2024-04-03T02:01:21.834Z,12.00
2024-04-03T02:16:22.359Z,8.00
2024-04-03T02:31:22.835Z,4.00
2024-04-03T02:46:23.271Z,20.00
2024-04-03T03:01:23.702Z,16.00
2024-04-03T03:16:24.246Z,24.00
2024-04-03T03:31:24.592Z,44.00
2024-04-03T03:46:24.984Z,52.00
2024-04-03T04:01:25.729Z,36.00
2024-04-03T04:16:26.071Z,76.00
2024-04-03T04:31:26.378Z,40.00
2024-04-03T04:46:27.108Z,52.00
2024-04-03T05:01:28.028Z,104.00
2024-04-03T05:16:28.306Z,60.00
2024-04-03T05:31:29.320Z,84.00
2024-04-03T05:46:29.604Z,100.00
2024-04-03T06:01:30.258Z,104.00
2024-04-03T06:16:30.947Z,104.00
2024-04-03T06:31:31.533Z,104.00
2024-04-03T06:46:32.348Z,84.00
2024-04-03T07:01:33.217Z,108.00
2024-04-03T07:16:33.570Z,64.00
2024-04-03T07:31:34.204Z,124.00
2024-04-03T07:46:35.005Z,92.00
2024-04-03T08:01:35.707Z,80.00
2024-04-03T08:16:36.745Z,80.00
2024-04-03T08:31:36.830Z,108.00
2024-04-03T08:46:37.227Z,104.00
2024-04-03T09:01:38.352Z,160.00
2024-04-03T09:16:41.173Z,152.00
2024-04-03T09:31:40.508Z,72.00
2024-04-03T09:46:40.015Z,120.00
2024-04-03T10:01:40.239Z,208.00
2024-04-03T10:16:41.341Z,136.00
2024-04-03T10:31:42.170Z,152.00
2024-04-03T10:46:42.597Z,144.00
2024-04-03T11:01:42.921Z,128.00
2024-04-03T11:16:44.027Z,188.00
2024-04-03T11:31:44.250Z,184.00
2024-04-03T11:46:45.008Z,160.00
2024-04-03T12:01:45.471Z,128.00
2024-04-03T12:16:46.413Z,188.00
2024-04-03T12:31:47.217Z,160.00
2024-04-03T12:46:47.597Z,132.00
2024-04-03T13:01:48.219Z,192.00
2024-04-03T13:16:49.010Z,208.00
2024-04-03T13:31:49.793Z,172.00
2024-04-03T13:46:50.468Z,220.00
2024-04-03T14:01:51.456Z,224.00
2024-04-03T14:16:51.752Z,184.00
2024-04-03T14:31:52.450Z,244.00
2024-04-03T14:46:53.463Z,256.00
2024-04-03T15:01:53.855Z,188.00
2024-04-03T15:16:54.779Z,192.00
2024-04-03T15:31:55.419Z,136.00
2024-04-03T15:46:56.118Z,216.00
2024-04-03T16:01:56.477Z,228.00
2024-04-03T16:16:57.038Z,140.00
2024-04-03T16:31:57.554Z,132.00
2024-04-03T16:46:57.952Z,176.00
2024-04-03T17:01:58.567Z,168.00
2024-04-03T17:16:59.085Z,140.00
2024-04-03T17:31:59.684Z,100.00
2024-04-03T17:47:09.595Z,116.00
2024-04-03T18:02:01.803Z,92.00
2024-04-03T18:17:01.458Z,64.00
2024-04-03T18:32:02.145Z,68.00
2024-04-03T18:47:02.987Z,56.00
2024-04-03T19:02:03.808Z,36.00
2024-04-03T19:17:04.470Z,60.00
2024-04-03T19:32:05.337Z,48.00
2024-04-03T19:47:05.724Z,56.00
2024-04-03T20:02:06.160Z,40.00
2024-04-03T20:17:06.406Z,44.00
2024-04-03T20:32:07.182Z,32.00
2024-04-03T20:47:08.051Z,44.00
2024-04-03T21:02:08.891Z,28.00
2024-04-03T21:17:09.166Z,28.00
2024-04-03T21:32:09.969Z,24.00
2024-04-03T21:47:10.737Z,32.00
2024-04-03T22:02:11.075Z,12.00
2024-04-03T22:17:11.408Z,16.00
2024-04-03T22:32:11.791Z,12.00
2024-04-03T22:47:12.084Z,12.00
2024-04-03T23:02:12.645Z,4.00
2024-04-03T23:17:12.907Z,8.00
2024-04-03T23:32:13.850Z,8.00
2024-04-03T23:47:14.170Z,4.00
